PWSweather.com
Personal Weather Stations
Station Observations
GRD01
Warsaw, LesznoPL 05-084

WarsawLesznoPL 05-084

Lat: 52.257404, Lon: 20.564847

Elevation: 298

Station Type: WH3080

http://pogoda.kampinos.waw.pl

High Low Average
Temperature 75.6°F24.2°C 51.3°F10.7°C 63.0°F17.2°C
Dew Point 58.4°F14.7°C 48.4°F9.1°C 52.1°F11.2°C
Winds 10.7 mph 17.2 kmh Calm Calm 3.0 mph SW4.8 kmh SW
Wind Gusts 17.4 mph28.0 kmh -- 6.0 mph9.7 kmh
Humidity 94% 39% 71%
Pressure 30.80 in1043.0 mb 30.69 in1039.3 mb -
Precipitation 0.00 in0.0 mm - -
Hour Temp Dew Point Humidity Winds Wind Gusts Pressure Precip Precip Rate Daily Precip Total
12:00 AM 54.1°F12.3°C 51.0°F10.6°C 89% 0.7 mph S1.1 kmh S 1.6 mph2.6 kmh 30.69 in1039.3 mb 0.00 in0.0 mm 0.00 in0.0 mm 0.00 in0.0 mm
12:10 AM 54.1°F12.3°C 51.0°F10.6°C 89% 0.7 mph S1.1 kmh S 0.7 mph1.1 kmh 30.25 in1024.4 mb 0.00 in0.0 mm 0.00 in0.0 mm 0.00 in0.0 mm
12:15 AM 54.0°F12.2°C 51.1°F10.6°C 90% Calm Calm 1.6 mph2.6 kmh 30.69 in1039.3 mb 0.00 in0.0 mm 0.00 in0.0 mm 0.00 in0.0 mm
12:30 AM 53.8°F12.1°C 50.9°F10.5°C 90% 0.7 mph S1.1 kmh S 1.6 mph2.6 kmh 30.69 in1039.3 mb 0.00 in0.0 mm 0.00 in0.0 mm 0.00 in0.0 mm
12:40 AM 53.8°F12.1°C 50.9°F10.5°C 90% 0.7 mph S1.1 kmh S 1.6 mph2.6 kmh 30.25 in1024.4 mb 0.00 in0.0 mm 0.00 in0.0 mm 0.00 in0.0 mm
12:45 AM 54.0°F12.2°C 51.1°F10.6°C 90% 0.7 mph S1.1 kmh S 1.6 mph2.6 kmh 30.69 in1039.3 mb 0.00 in0.0 mm 0.00 in0.0 mm 0.00 in0.0 mm
01:00 AM 54.1°F12.3°C 51.6°F10.9°C 91% 0.7 mph S1.1 kmh S 2.2 mph3.5 kmh 30.69 in1039.3 mb 0.00 in0.0 mm 0.00 in0.0 mm 0.00 in0.0 mm
01:10 AM 54.1°F12.3°C 51.6°F10.9°C 91% 0.7 mph S1.1 kmh S 1.6 mph2.6 kmh 30.24 in1024.0 mb 0.00 in0.0 mm 0.00 in0.0 mm 0.00 in0.0 mm
01:15 AM 54.1°F12.3°C 51.6°F10.9°C 91% Calm Calm 0.7 mph1.1 kmh 30.69 in1039.3 mb 0.00 in0.0 mm 0.00 in0.0 mm 0.00 in0.0 mm
01:30 AM 54.0°F12.2°C 51.7°F10.9°C 92% 0.7 mph S1.1 kmh S 2.2 mph3.5 kmh 30.69 in1039.3 mb 0.00 in0.0 mm 0.00 in0.0 mm 0.00 in0.0 mm
01:40 AM 54.0°F12.2°C 51.7°F10.9°C 92% 0.7 mph S1.1 kmh S 1.6 mph2.6 kmh 30.24 in1024.0 mb 0.00 in0.0 mm 0.00 in0.0 mm 0.00 in0.0 mm
01:45 AM 53.8°F12.1°C 51.5°F10.8°C 92% Calm Calm 1.6 mph2.6 kmh 30.70 in1039.6 mb 0.00 in0.0 mm 0.00 in0.0 mm 0.00 in0.0 mm
02:00 AM 53.6°F12.0°C 51.3°F10.7°C 92% 0.7 mph S1.1 kmh S 1.6 mph2.6 kmh 30.69 in1039.3 mb 0.00 in0.0 mm 0.00 in0.0 mm 0.00 in0.0 mm
02:10 AM 53.6°F12.0°C 51.3°F10.7°C 92% 0.7 mph S1.1 kmh S 1.6 mph2.6 kmh 30.25 in1024.4 mb 0.00 in0.0 mm 0.00 in0.0 mm 0.00 in0.0 mm
02:15 AM 53.4°F11.9°C 51.2°F10.7°C 92% 0.7 mph S1.1 kmh S 2.2 mph3.5 kmh 30.69 in1039.3 mb 0.00 in0.0 mm 0.00 in0.0 mm 0.00 in0.0 mm
02:30 AM 53.6°F12.0°C 51.3°F10.7°C 92% Calm Calm 2.2 mph3.5 kmh 30.69 in1039.3 mb 0.00 in0.0 mm 0.00 in0.0 mm 0.00 in0.0 mm
02:40 AM 53.6°F12.0°C 51.3°F10.7°C 92% Calm Calm -- 30.25 in1024.4 mb 0.00 in0.0 mm 0.00 in0.0 mm 0.00 in0.0 mm
02:45 AM 53.2°F11.8°C 51.0°F10.6°C 92% Calm Calm 0.7 mph1.1 kmh 30.70 in1039.6 mb 0.00 in0.0 mm 0.00 in0.0 mm 0.00 in0.0 mm
03:00 AM 52.7°F11.5°C 50.4°F10.2°C 92% 0.7 mph S1.1 kmh S 1.6 mph2.6 kmh 30.69 in1039.3 mb 0.00 in0.0 mm 0.00 in0.0 mm 0.00 in0.0 mm
03:10 AM 52.7°F11.5°C 50.4°F10.2°C 92% Calm Calm 0.7 mph1.1 kmh 30.25 in1024.4 mb 0.00 in0.0 mm 0.00 in0.0 mm 0.00 in0.0 mm
03:15 AM 52.5°F11.4°C 50.3°F10.2°C 92% 0.7 mph S1.1 kmh S 1.6 mph2.6 kmh 30.69 in1039.3 mb 0.00 in0.0 mm 0.00 in0.0 mm 0.00 in0.0 mm
03:30 AM 52.3°F11.3°C 50.1°F10.1°C 92% Calm Calm 1.6 mph2.6 kmh 30.70 in1039.6 mb 0.00 in0.0 mm 0.00 in0.0 mm 0.00 in0.0 mm
03:40 AM 52.3°F11.3°C 50.1°F10.1°C 92% Calm Calm 0.7 mph1.1 kmh 30.26 in1024.7 mb 0.00 in0.0 mm 0.00 in0.0 mm 0.00 in0.0 mm
03:45 AM 52.0°F11.1°C 49.7°F9.8°C 92% Calm Calm 0.7 mph1.1 kmh 30.70 in1039.6 mb 0.00 in0.0 mm 0.00 in0.0 mm 0.00 in0.0 mm
04:00 AM 51.6°F10.9°C 49.4°F9.7°C 92% Calm Calm -- 30.70 in1039.6 mb 0.00 in0.0 mm 0.00 in0.0 mm 0.00 in0.0 mm
04:10 AM 51.6°F10.9°C 49.4°F9.7°C 92% Calm Calm -- 30.26 in1024.7 mb 0.00 in0.0 mm 0.00 in0.0 mm 0.00 in0.0 mm
04:15 AM 51.4°F10.8°C 49.2°F9.6°C 92% 0.7 mph S1.1 kmh S 1.6 mph2.6 kmh 30.71 in1040.0 mb 0.00 in0.0 mm 0.00 in0.0 mm 0.00 in0.0 mm
04:30 AM 51.4°F10.8°C 49.2°F9.6°C 92% Calm Calm 1.6 mph2.6 kmh 30.70 in1039.6 mb 0.00 in0.0 mm 0.00 in0.0 mm 0.00 in0.0 mm
04:40 AM 51.4°F10.8°C 49.2°F9.6°C 92% Calm Calm 0.7 mph1.1 kmh 30.25 in1024.4 mb 0.00 in0.0 mm 0.00 in0.0 mm 0.00 in0.0 mm
04:45 AM 51.4°F10.8°C 49.2°F9.6°C 92% 0.7 mph S1.1 kmh S 1.6 mph2.6 kmh 30.70 in1039.6 mb 0.00 in0.0 mm 0.00 in0.0 mm 0.00 in0.0 mm
05:00 AM 51.4°F10.8°C 49.2°F9.6°C 92% 0.7 mph S1.1 kmh S 1.6 mph2.6 kmh 30.70 in1039.6 mb 0.00 in0.0 mm 0.00 in0.0 mm 0.00 in0.0 mm
05:10 AM 51.4°F10.8°C 49.2°F9.6°C 92% 0.7 mph S1.1 kmh S 1.6 mph2.6 kmh 30.26 in1024.7 mb 0.00 in0.0 mm 0.00 in0.0 mm 0.00 in0.0 mm
05:15 AM 51.3°F10.7°C 49.0°F9.4°C 92% 0.7 mph W1.1 kmh W 1.6 mph2.6 kmh 30.70 in1039.6 mb 0.00 in0.0 mm 0.00 in0.0 mm 0.00 in0.0 mm
05:30 AM 51.4°F10.8°C 49.5°F9.7°C 93% 0.7 mph S1.1 kmh S 2.2 mph3.5 kmh 30.70 in1039.6 mb 0.00 in0.0 mm 0.00 in0.0 mm 0.00 in0.0 mm
05:40 AM 51.4°F10.8°C 49.5°F9.7°C 93% 0.7 mph S1.1 kmh S 1.6 mph2.6 kmh 30.26 in1024.7 mb 0.00 in0.0 mm 0.00 in0.0 mm 0.00 in0.0 mm
05:45 AM 51.8°F11.0°C 49.8°F9.9°C 93% 1.6 mph S2.6 kmh S 2.2 mph3.5 kmh 30.71 in1040.0 mb 0.00 in0.0 mm 0.00 in0.0 mm 0.00 in0.0 mm
06:00 AM 52.3°F11.3°C 50.4°F10.2°C 93% 0.7 mph S1.1 kmh S 2.2 mph3.5 kmh 30.72 in1040.3 mb 0.00 in0.0 mm 0.00 in0.0 mm 0.00 in0.0 mm
06:10 AM 52.3°F11.3°C 50.7°F10.4°C 94% 1.6 mph S2.6 kmh S 2.2 mph3.5 kmh 30.27 in1025.1 mb 0.00 in0.0 mm 0.00 in0.0 mm 0.00 in0.0 mm
06:15 AM 53.2°F11.8°C 51.6°F10.9°C 94% 1.6 mph S2.6 kmh S 4.5 mph7.2 kmh 30.71 in1040.0 mb 0.00 in0.0 mm 0.00 in0.0 mm 0.00 in0.0 mm
06:30 AM 55.0°F12.8°C 53.1°F11.7°C 93% 1.6 mph S2.6 kmh S 3.1 mph5.0 kmh 30.72 in1040.3 mb 0.00 in0.0 mm 0.00 in0.0 mm 0.00 in0.0 mm
06:40 AM 55.2°F12.9°C 53.2°F11.8°C 93% 1.6 mph SE2.6 kmh SE 2.2 mph3.5 kmh 30.28 in1025.4 mb 0.00 in0.0 mm 0.00 in0.0 mm 0.00 in0.0 mm
06:45 AM 56.7°F13.7°C 54.7°F12.6°C 93% 1.6 mph S2.6 kmh S 3.8 mph6.1 kmh 30.72 in1040.3 mb 0.00 in0.0 mm 0.00 in0.0 mm 0.00 in0.0 mm
07:00 AM 57.6°F14.2°C 55.6°F13.1°C 93% 0.7 mph S1.1 kmh S 3.8 mph6.1 kmh 30.72 in1040.3 mb 0.00 in0.0 mm 0.00 in0.0 mm 0.00 in0.0 mm
07:10 AM 57.6°F14.2°C 55.6°F13.1°C 93% 0.7 mph S1.1 kmh S 2.2 mph3.5 kmh 30.27 in1025.1 mb 0.00 in0.0 mm 0.00 in0.0 mm 0.00 in0.0 mm
07:15 AM 59.2°F15.1°C 55.9°F13.3°C 89% 3.1 mph S5.0 kmh S 6.9 mph11.1 kmh 30.71 in1040.0 mb 0.00 in0.0 mm 0.00 in0.0 mm 0.00 in0.0 mm
07:30 AM 60.3°F15.7°C 55.7°F13.2°C 85% 3.8 mph SW6.1 kmh SW 6.9 mph11.1 kmh 30.73 in1040.6 mb 0.00 in0.0 mm 0.00 in0.0 mm 0.00 in0.0 mm
07:40 AM 60.4°F15.8°C 55.9°F13.3°C 85% 0.7 mph S1.1 kmh S 1.6 mph2.6 kmh 30.29 in1025.7 mb 0.00 in0.0 mm 0.00 in0.0 mm 0.00 in0.0 mm
07:45 AM 61.3°F16.3°C 55.8°F13.2°C 82% 3.1 mph SSW5.0 kmh SSW 5.4 mph8.7 kmh 30.72 in1040.3 mb 0.00 in0.0 mm 0.00 in0.0 mm 0.00 in0.0 mm
08:00 AM 62.4°F16.9°C 56.2°F13.4°C 80% 1.6 mph S2.6 kmh S 6.0 mph9.7 kmh 30.73 in1040.6 mb 0.00 in0.0 mm 0.00 in0.0 mm 0.00 in0.0 mm
08:10 AM 62.6°F17.0°C 56.3°F13.5°C 80% 1.6 mph S2.6 kmh S 2.2 mph3.5 kmh 30.29 in1025.7 mb 0.00 in0.0 mm 0.00 in0.0 mm 0.00 in0.0 mm
08:15 AM 63.5°F17.5°C 55.4°F13.0°C 75% 2.2 mph SSW3.5 kmh SSW 6.9 mph11.1 kmh 30.73 in1040.6 mb 0.00 in0.0 mm 0.00 in0.0 mm 0.00 in0.0 mm
08:30 AM 64.4°F18.0°C 55.9°F13.3°C 74% 2.2 mph SSW3.5 kmh SSW 4.5 mph7.2 kmh 30.74 in1041.0 mb 0.00 in0.0 mm 0.00 in0.0 mm 0.00 in0.0 mm
08:40 AM 64.4°F18.0°C 55.9°F13.3°C 74% Calm Calm 0.7 mph1.1 kmh 30.30 in1026.1 mb 0.00 in0.0 mm 0.00 in0.0 mm 0.00 in0.0 mm
08:45 AM 65.5°F18.6°C 56.2°F13.4°C 72% 1.6 mph SSW2.6 kmh SSW 6.0 mph9.7 kmh 30.74 in1041.0 mb 0.00 in0.0 mm 0.00 in0.0 mm 0.00 in0.0 mm
09:00 AM 66.6°F19.2°C 56.9°F13.8°C 71% 3.8 mph SSW6.1 kmh SSW 6.0 mph9.7 kmh 30.75 in1041.3 mb 0.00 in0.0 mm 0.00 in0.0 mm 0.00 in0.0 mm
09:10 AM 66.6°F19.2°C 56.9°F13.8°C 71% 2.2 mph S3.5 kmh S 4.5 mph7.2 kmh 30.30 in1026.1 mb 0.00 in0.0 mm 0.00 in0.0 mm 0.00 in0.0 mm
09:15 AM 67.8°F19.9°C 57.7°F14.3°C 70% 0.7 mph S1.1 kmh S 5.4 mph8.7 kmh 30.75 in1041.3 mb 0.00 in0.0 mm 0.00 in0.0 mm 0.00 in0.0 mm
09:30 AM 69.4°F20.8°C 58.4°F14.7°C 68% 3.1 mph SW5.0 kmh SW 8.3 mph13.4 kmh 30.75 in1041.3 mb 0.00 in0.0 mm 0.00 in0.0 mm 0.00 in0.0 mm
09:40 AM 69.6°F20.9°C 58.6°F14.8°C 68% 5.4 mph S8.7 kmh S 7.6 mph12.2 kmh 30.31 in1026.4 mb 0.00 in0.0 mm 0.00 in0.0 mm 0.00 in0.0 mm
09:45 AM 71.1°F21.7°C 57.4°F14.1°C 62% 5.4 mph SW8.7 kmh SW 9.8 mph15.8 kmh 30.76 in1041.7 mb 0.00 in0.0 mm 0.00 in0.0 mm 0.00 in0.0 mm
10:00 AM 71.4°F21.9°C 56.8°F13.8°C 60% 5.4 mph S8.7 kmh S 10.7 mph17.2 kmh 30.75 in1041.3 mb 0.00 in0.0 mm 0.00 in0.0 mm 0.00 in0.0 mm
10:10 AM 71.6°F22.0°C 57.0°F13.9°C 60% 6.9 mph SW11.1 kmh SW 9.8 mph15.8 kmh 30.31 in1026.4 mb 0.00 in0.0 mm 0.00 in0.0 mm 0.00 in0.0 mm
10:15 AM 71.4°F21.9°C 56.3°F13.5°C 59% 6.0 mph WSW9.7 kmh WSW 12.1 mph19.5 kmh 30.76 in1041.7 mb 0.00 in0.0 mm 0.00 in0.0 mm 0.00 in0.0 mm
10:30 AM 72.1°F22.3°C 55.6°F13.1°C 56% 7.6 mph SSW12.2 kmh SSW 12.1 mph19.5 kmh 30.76 in1041.7 mb 0.00 in0.0 mm 0.00 in0.0 mm 0.00 in0.0 mm
10:40 AM 72.1°F22.3°C 55.6°F13.1°C 56% 6.0 mph SE9.7 kmh SE 9.2 mph14.8 kmh 30.31 in1026.4 mb 0.00 in0.0 mm 0.00 in0.0 mm 0.00 in0.0 mm
10:45 AM 72.5°F22.5°C 53.3°F11.8°C 51% 7.6 mph S12.2 kmh S 12.1 mph19.5 kmh 30.76 in1041.7 mb 0.00 in0.0 mm 0.00 in0.0 mm 0.00 in0.0 mm
11:00 AM 73.0°F22.8°C 53.8°F12.1°C 51% 9.2 mph WSW14.8 kmh WSW 15.9 mph25.6 kmh 30.76 in1041.7 mb 0.00 in0.0 mm 0.00 in0.0 mm 0.00 in0.0 mm
11:10 AM 73.2°F22.9°C 54.0°F12.2°C 51% 5.4 mph SE8.7 kmh SE 6.9 mph11.1 kmh 30.32 in1026.8 mb 0.00 in0.0 mm 0.00 in0.0 mm 0.00 in0.0 mm
11:15 AM 73.6°F23.1°C 52.1°F11.2°C 47% 10.7 mph SSW17.2 kmh SSW 14.5 mph23.3 kmh 30.76 in1041.7 mb 0.00 in0.0 mm 0.00 in0.0 mm 0.00 in0.0 mm
11:30 AM 73.8°F23.2°C 49.2°F9.6°C 42% 6.0 mph SW9.7 kmh SW 12.1 mph19.5 kmh 30.76 in1041.7 mb 0.00 in0.0 mm 0.00 in0.0 mm 0.00 in0.0 mm
11:40 AM 73.8°F23.2°C 49.2°F9.6°C 42% 6.9 mph S11.1 kmh S 9.8 mph15.8 kmh 30.32 in1026.8 mb 0.00 in0.0 mm 0.00 in0.0 mm 0.00 in0.0 mm
11:45 AM 74.1°F23.4°C 48.9°F9.4°C 41% 9.2 mph SW14.8 kmh SW 15.2 mph24.5 kmh 30.76 in1041.7 mb 0.00 in0.0 mm 0.00 in0.0 mm 0.00 in0.0 mm
12:00 PM 74.7°F23.7°C 48.7°F9.3°C 40% 6.0 mph WSW9.7 kmh WSW 15.2 mph24.5 kmh 30.76 in1041.7 mb 0.00 in0.0 mm 0.00 in0.0 mm 0.00 in0.0 mm
12:10 PM 74.7°F23.7°C 48.7°F9.3°C 40% 9.8 mph S15.8 kmh S 14.5 mph23.3 kmh 30.32 in1026.8 mb 0.00 in0.0 mm 0.00 in0.0 mm 0.00 in0.0 mm
12:15 PM 74.7°F23.7°C 49.4°F9.7°C 41% 6.0 mph W9.7 kmh W 13.6 mph21.9 kmh 30.76 in1041.7 mb 0.00 in0.0 mm 0.00 in0.0 mm 0.00 in0.0 mm
12:30 PM 74.8°F23.8°C 49.6°F9.8°C 41% 3.8 mph WSW6.1 kmh WSW 15.2 mph24.5 kmh 30.76 in1041.7 mb 0.00 in0.0 mm 0.00 in0.0 mm 0.00 in0.0 mm
12:40 PM 74.8°F23.8°C 49.6°F9.8°C 41% 3.8 mph SW6.1 kmh SW 6.9 mph11.1 kmh 30.31 in1026.4 mb 0.00 in0.0 mm 0.00 in0.0 mm 0.00 in0.0 mm
12:45 PM 74.8°F23.8°C 48.9°F9.4°C 40% 5.4 mph WSW8.7 kmh WSW 14.5 mph23.3 kmh 30.76 in1041.7 mb 0.00 in0.0 mm 0.00 in0.0 mm 0.00 in0.0 mm
01:00 PM 75.0°F23.9°C 49.1°F9.5°C 40% 8.3 mph SW13.4 kmh SW 13.6 mph21.9 kmh 30.76 in1041.7 mb 0.00 in0.0 mm 0.00 in0.0 mm 0.00 in0.0 mm
01:10 PM 75.0°F23.9°C 49.1°F9.5°C 40% 8.3 mph SW13.4 kmh SW 11.4 mph18.3 kmh 30.32 in1026.8 mb 0.00 in0.0 mm 0.00 in0.0 mm 0.00 in0.0 mm
01:15 PM 75.6°F24.2°C 49.5°F9.7°C 40% 5.4 mph WSW8.7 kmh WSW 13.6 mph21.9 kmh 30.76 in1041.7 mb 0.00 in0.0 mm 0.00 in0.0 mm 0.00 in0.0 mm
01:30 PM 75.6°F24.2°C 50.2°F10.1°C 41% 2.2 mph SW3.5 kmh SW 13.0 mph20.9 kmh 30.76 in1041.7 mb 0.00 in0.0 mm 0.00 in0.0 mm 0.00 in0.0 mm
01:40 PM 75.7°F24.3°C 50.4°F10.2°C 41% 3.8 mph E6.1 kmh E 6.9 mph11.1 kmh 30.32 in1026.8 mb 0.00 in0.0 mm 0.00 in0.0 mm 0.00 in0.0 mm
01:45 PM 75.0°F23.9°C 48.4°F9.1°C 39% 6.0 mph WNW9.7 kmh WNW 15.9 mph25.6 kmh 30.76 in1041.7 mb 0.00 in0.0 mm 0.00 in0.0 mm 0.00 in0.0 mm
02:00 PM 74.7°F23.7°C 48.7°F9.3°C 40% 6.9 mph WSW11.1 kmh WSW 14.5 mph23.3 kmh 30.76 in1041.7 mb 0.00 in0.0 mm 0.00 in0.0 mm 0.00 in0.0 mm
02:10 PM 74.8°F23.8°C 48.9°F9.4°C 40% 4.5 mph W7.2 kmh W 8.3 mph13.4 kmh 30.31 in1026.4 mb 0.00 in0.0 mm 0.00 in0.0 mm 0.00 in0.0 mm
02:15 PM 75.6°F24.2°C 49.5°F9.7°C 40% 4.5 mph WSW7.2 kmh WSW 15.9 mph25.6 kmh 30.75 in1041.3 mb 0.00 in0.0 mm 0.00 in0.0 mm 0.00 in0.0 mm
02:30 PM 75.4°F24.1°C 48.7°F9.3°C 39% 6.9 mph W11.1 kmh W 13.6 mph21.9 kmh 30.75 in1041.3 mb 0.00 in0.0 mm 0.00 in0.0 mm 0.00 in0.0 mm
02:40 PM 75.2°F24.0°C 48.5°F9.2°C 39% 9.2 mph N14.8 kmh N 13.6 mph21.9 kmh 30.31 in1026.4 mb 0.00 in0.0 mm 0.00 in0.0 mm 0.00 in0.0 mm
02:45 PM 75.2°F24.0°C 49.9°F9.9°C 41% 6.9 mph W11.1 kmh W 12.1 mph19.5 kmh 30.75 in1041.3 mb 0.00 in0.0 mm 0.00 in0.0 mm 0.00 in0.0 mm
03:00 PM 74.8°F23.8°C 49.6°F9.8°C 41% 8.3 mph WNW13.4 kmh WNW 17.4 mph28.0 kmh 30.74 in1041.0 mb 0.00 in0.0 mm 0.00 in0.0 mm 0.00 in0.0 mm
03:10 PM 74.8°F23.8°C 49.6°F9.8°C 41% 7.6 mph N12.2 kmh N 10.7 mph17.2 kmh 30.31 in1026.4 mb 0.00 in0.0 mm 0.00 in0.0 mm 0.00 in0.0 mm
03:15 PM 74.7°F23.7°C 49.4°F9.7°C 41% 7.6 mph WSW12.2 kmh WSW 15.2 mph24.5 kmh 30.75 in1041.3 mb 0.00 in0.0 mm 0.00 in0.0 mm 0.00 in0.0 mm
03:30 PM 74.3°F23.5°C 49.7°F9.8°C 42% 3.8 mph NW6.1 kmh NW 13.0 mph20.9 kmh 30.75 in1041.3 mb 0.00 in0.0 mm 0.00 in0.0 mm 0.00 in0.0 mm
03:40 PM 74.3°F23.5°C 49.7°F9.8°C 42% 3.8 mph NE6.1 kmh NE 6.9 mph11.1 kmh 30.30 in1026.1 mb 0.00 in0.0 mm 0.00 in0.0 mm 0.00 in0.0 mm
03:45 PM 73.2°F22.9°C 49.4°F9.7°C 43% 4.5 mph NW7.2 kmh NW 9.2 mph14.8 kmh 30.75 in1041.3 mb 0.00 in0.0 mm 0.00 in0.0 mm 0.00 in0.0 mm
04:00 PM 72.1°F22.3°C 51.9°F11.1°C 49% 6.0 mph W9.7 kmh W 9.8 mph15.8 kmh 30.75 in1041.3 mb 0.00 in0.0 mm 0.00 in0.0 mm 0.00 in0.0 mm
04:10 PM 72.1°F22.3°C 51.9°F11.1°C 49% 6.0 mph NW9.7 kmh NW 8.3 mph13.4 kmh 30.31 in1026.4 mb 0.00 in0.0 mm 0.00 in0.0 mm 0.00 in0.0 mm
04:15 PM 71.8°F22.1°C 52.7°F11.5°C 51% 6.9 mph W11.1 kmh W 9.2 mph14.8 kmh 30.75 in1041.3 mb 0.00 in0.0 mm 0.00 in0.0 mm 0.00 in0.0 mm
04:30 PM 71.2°F21.8°C 52.2°F11.2°C 51% 3.8 mph WNW6.1 kmh WNW 6.9 mph11.1 kmh 30.76 in1041.7 mb 0.00 in0.0 mm 0.00 in0.0 mm 0.00 in0.0 mm
04:40 PM 71.2°F21.8°C 52.2°F11.2°C 51% 3.1 mph NW5.0 kmh NW 4.5 mph7.2 kmh 30.32 in1026.8 mb 0.00 in0.0 mm 0.00 in0.0 mm 0.00 in0.0 mm
04:45 PM 70.9°F21.6°C 52.9°F11.6°C 53% 9.8 mph WNW15.8 kmh WNW 12.1 mph19.5 kmh 30.76 in1041.7 mb 0.00 in0.0 mm 0.00 in0.0 mm 0.00 in0.0 mm
05:00 PM 70.2°F21.2°C 53.7°F12.1°C 56% 8.3 mph NW13.4 kmh NW 16.8 mph27.0 kmh 30.77 in1042.0 mb 0.00 in0.0 mm 0.00 in0.0 mm 0.00 in0.0 mm
05:10 PM 70.2°F21.2°C 53.7°F12.1°C 56% 8.3 mph WNW13.4 kmh WNW 9.8 mph15.8 kmh 30.32 in1026.8 mb 0.00 in0.0 mm 0.00 in0.0 mm 0.00 in0.0 mm
05:15 PM 69.4°F20.8°C 54.5°F12.5°C 59% 7.6 mph NW12.2 kmh NW 10.7 mph17.2 kmh 30.77 in1042.0 mb 0.00 in0.0 mm 0.00 in0.0 mm 0.00 in0.0 mm
05:30 PM 68.5°F20.3°C 54.1°F12.3°C 60% 4.5 mph NW7.2 kmh NW 12.1 mph19.5 kmh 30.76 in1041.7 mb 0.00 in0.0 mm 0.00 in0.0 mm 0.00 in0.0 mm
05:40 PM 68.5°F20.3°C 54.1°F12.3°C 60% 3.8 mph NW6.1 kmh NW 6.0 mph9.7 kmh 30.32 in1026.8 mb 0.00 in0.0 mm 0.00 in0.0 mm 0.00 in0.0 mm
05:45 PM 68.0°F20.0°C 54.0°F12.2°C 61% 3.8 mph NW6.1 kmh NW 6.0 mph9.7 kmh 30.77 in1042.0 mb 0.00 in0.0 mm 0.00 in0.0 mm 0.00 in0.0 mm
06:00 PM 67.5°F19.7°C 54.0°F12.2°C 62% 5.4 mph NW8.7 kmh NW 8.3 mph13.4 kmh 30.77 in1042.0 mb 0.00 in0.0 mm 0.00 in0.0 mm 0.00 in0.0 mm
06:10 PM 67.3°F19.6°C 53.8°F12.1°C 62% 4.5 mph W7.2 kmh W 6.0 mph9.7 kmh 30.32 in1026.8 mb 0.00 in0.0 mm 0.00 in0.0 mm 0.00 in0.0 mm
06:15 PM 66.7°F19.3°C 53.7°F12.1°C 63% 2.2 mph NW3.5 kmh NW 6.0 mph9.7 kmh 30.77 in1042.0 mb 0.00 in0.0 mm 0.00 in0.0 mm 0.00 in0.0 mm
06:30 PM 66.0°F18.9°C 53.5°F11.9°C 64% 3.8 mph NW6.1 kmh NW 8.3 mph13.4 kmh 30.78 in1042.3 mb 0.00 in0.0 mm 0.00 in0.0 mm 0.00 in0.0 mm
06:40 PM 66.0°F18.9°C 53.5°F11.9°C 64% 3.8 mph NW6.1 kmh NW 5.4 mph8.7 kmh 30.33 in1027.1 mb 0.00 in0.0 mm 0.00 in0.0 mm 0.00 in0.0 mm
06:45 PM 65.1°F18.4°C 53.1°F11.7°C 65% 0.7 mph NW1.1 kmh NW 6.0 mph9.7 kmh 30.78 in1042.3 mb 0.00 in0.0 mm 0.00 in0.0 mm 0.00 in0.0 mm
07:00 PM 64.8°F18.2°C 53.1°F11.7°C 66% 2.2 mph W3.5 kmh W 4.5 mph7.2 kmh 30.79 in1042.7 mb 0.00 in0.0 mm 0.00 in0.0 mm 0.00 in0.0 mm
07:10 PM 64.8°F18.2°C 53.1°F11.7°C 66% 2.2 mph W3.5 kmh W 3.8 mph6.1 kmh 30.35 in1027.8 mb 0.00 in0.0 mm 0.00 in0.0 mm 0.00 in0.0 mm
07:15 PM 64.4°F18.0°C 53.6°F12.0°C 68% 1.6 mph WSW2.6 kmh WSW 4.5 mph7.2 kmh 30.79 in1042.7 mb 0.00 in0.0 mm 0.00 in0.0 mm 0.00 in0.0 mm
07:30 PM 64.0°F17.8°C 53.7°F12.1°C 69% 0.7 mph SW1.1 kmh SW 2.2 mph3.5 kmh 30.78 in1042.3 mb 0.00 in0.0 mm 0.00 in0.0 mm 0.00 in0.0 mm
07:40 PM 64.0°F17.8°C 53.7°F12.1°C 69% Calm Calm 0.7 mph1.1 kmh 30.34 in1027.4 mb 0.00 in0.0 mm 0.00 in0.0 mm 0.00 in0.0 mm
07:45 PM 63.0°F17.2°C 54.2°F12.3°C 73% 0.7 mph SW1.1 kmh SW 2.2 mph3.5 kmh 30.79 in1042.7 mb 0.00 in0.0 mm 0.00 in0.0 mm 0.00 in0.0 mm
08:00 PM 62.1°F16.7°C 54.0°F12.2°C 75% 1.6 mph SW2.6 kmh SW 3.1 mph5.0 kmh 30.78 in1042.3 mb 0.00 in0.0 mm 0.00 in0.0 mm 0.00 in0.0 mm
08:10 PM 62.1°F16.7°C 54.0°F12.2°C 75% 0.7 mph S1.1 kmh S 2.2 mph3.5 kmh 30.34 in1027.4 mb 0.00 in0.0 mm 0.00 in0.0 mm 0.00 in0.0 mm
08:15 PM 61.5°F16.4°C 53.5°F11.9°C 75% 1.6 mph S2.6 kmh S 1.6 mph2.6 kmh 30.79 in1042.7 mb 0.00 in0.0 mm 0.00 in0.0 mm 0.00 in0.0 mm
08:30 PM 60.8°F16.0°C 53.5°F11.9°C 77% 0.7 mph S1.1 kmh S 4.5 mph7.2 kmh 30.79 in1042.7 mb 0.00 in0.0 mm 0.00 in0.0 mm 0.00 in0.0 mm
08:40 PM 60.8°F16.0°C 53.5°F11.9°C 77% 0.7 mph S1.1 kmh S 1.6 mph2.6 kmh 30.34 in1027.4 mb 0.00 in0.0 mm 0.00 in0.0 mm 0.00 in0.0 mm
08:45 PM 60.1°F15.6°C 53.2°F11.8°C 78% 0.7 mph S1.1 kmh S 2.2 mph3.5 kmh 30.78 in1042.3 mb 0.00 in0.0 mm 0.00 in0.0 mm 0.00 in0.0 mm
09:00 PM 59.2°F15.1°C 52.7°F11.5°C 79% 1.6 mph S2.6 kmh S 2.2 mph3.5 kmh 30.78 in1042.3 mb 0.00 in0.0 mm 0.00 in0.0 mm 0.00 in0.0 mm
09:10 PM 59.0°F15.0°C 52.5°F11.4°C 79% 1.6 mph S2.6 kmh S 2.2 mph3.5 kmh 30.34 in1027.4 mb 0.00 in0.0 mm 0.00 in0.0 mm 0.00 in0.0 mm
09:15 PM 58.6°F14.8°C 52.8°F11.6°C 81% 0.7 mph S1.1 kmh S 1.6 mph2.6 kmh 30.79 in1042.7 mb 0.00 in0.0 mm 0.00 in0.0 mm 0.00 in0.0 mm
09:30 PM 58.1°F14.5°C 52.3°F11.3°C 81% Calm Calm 0.7 mph1.1 kmh 30.79 in1042.7 mb 0.00 in0.0 mm 0.00 in0.0 mm 0.00 in0.0 mm
09:40 PM 58.1°F14.5°C 52.3°F11.3°C 81% Calm Calm -- 30.35 in1027.8 mb 0.00 in0.0 mm 0.00 in0.0 mm 0.00 in0.0 mm
09:45 PM 57.7°F14.3°C 51.9°F11.1°C 81% 2.2 mph S3.5 kmh S 3.1 mph5.0 kmh 30.79 in1042.7 mb 0.00 in0.0 mm 0.00 in0.0 mm 0.00 in0.0 mm
10:00 PM 57.4°F14.1°C 51.9°F11.1°C 82% Calm Calm 1.6 mph2.6 kmh 30.79 in1042.7 mb 0.00 in0.0 mm 0.00 in0.0 mm 0.00 in0.0 mm
10:10 PM 57.4°F14.1°C 51.9°F11.1°C 82% 0.7 mph SW1.1 kmh SW 1.6 mph2.6 kmh 30.35 in1027.8 mb 0.00 in0.0 mm 0.00 in0.0 mm 0.00 in0.0 mm
10:15 PM 57.4°F14.1°C 52.3°F11.3°C 83% Calm Calm 1.6 mph2.6 kmh 30.79 in1042.7 mb 0.00 in0.0 mm 0.00 in0.0 mm 0.00 in0.0 mm
10:30 PM 56.8°F13.8°C 51.7°F10.9°C 83% Calm Calm 0.7 mph1.1 kmh 30.79 in1042.7 mb 0.00 in0.0 mm 0.00 in0.0 mm 0.00 in0.0 mm
10:40 PM 56.8°F13.8°C 51.7°F10.9°C 83% 0.7 mph SW1.1 kmh SW 1.6 mph2.6 kmh 30.35 in1027.8 mb 0.00 in0.0 mm 0.00 in0.0 mm 0.00 in0.0 mm
10:45 PM 56.3°F13.5°C 51.2°F10.7°C 83% 1.6 mph S2.6 kmh S 3.1 mph5.0 kmh 30.79 in1042.7 mb 0.00 in0.0 mm 0.00 in0.0 mm 0.00 in0.0 mm
11:00 PM 56.1°F13.4°C 51.7°F10.9°C 85% Calm Calm 2.2 mph3.5 kmh 30.80 in1043.0 mb 0.00 in0.0 mm 0.00 in0.0 mm 0.00 in0.0 mm
11:10 PM 56.1°F13.4°C 51.7°F10.9°C 85% Calm Calm 0.7 mph1.1 kmh 30.35 in1027.8 mb 0.00 in0.0 mm 0.00 in0.0 mm 0.00 in0.0 mm
11:15 PM 55.8°F13.2°C 51.3°F10.7°C 85% 1.6 mph S2.6 kmh S 2.2 mph3.5 kmh 30.79 in1042.7 mb 0.00 in0.0 mm 0.00 in0.0 mm 0.00 in0.0 mm
11:30 PM 55.8°F13.2°C 51.6°F10.9°C 86% 0.7 mph S1.1 kmh S 2.2 mph3.5 kmh 30.79 in1042.7 mb 0.00 in0.0 mm 0.00 in0.0 mm 0.00 in0.0 mm
11:40 PM 55.8°F13.2°C 51.6°F10.9°C 86% 0.7 mph S1.1 kmh S 1.6 mph2.6 kmh 30.35 in1027.8 mb 0.00 in0.0 mm 0.00 in0.0 mm 0.00 in0.0 mm
11:45 PM 55.6°F13.1°C 51.8°F11.0°C 87% 0.7 mph S1.1 kmh S 3.1 mph5.0 kmh 30.79 in1042.7 mb 0.00 in0.0 mm 0.00 in0.0 mm 0.00 in0.0 mm